Time;durP1;ratioP1;P1;durP2;ratioP2;P2;SDS_P1;SDS_P2;PMS_P1;PMS_P2;Temp;Humidity;BMP_temperature;BMP_pressure;BME280_temperature;BME280_humidity;BME280_pressure;Samples;Min_cycle;Max_cycle;Signal;HPM_P1;HPM_P2
2021/05/31 00:00:44;;;;;;;11.87;9.70;;;;;;;13.80;65.00;95100.50;5072729;28;20442;-65
2021/05/31 00:03:11;;;;;;;10.90;9.50;;;;;;;13.89;64.81;95112.84;5071754;28;20834;-65
2021/05/31 00:05:38;;;;;;;12.40;9.57;;;;;;;13.89;64.37;95118.09;5062473;28;21552;-66
2021/05/31 00:08:05;;;;;;;10.67;9.60;;;;;;;13.78;64.69;95105.25;5065900;28;20834;-65
2021/05/31 00:10:32;;;;;;;10.23;9.23;;;;;;;13.90;64.81;95114.41;5052548;28;20485;-65
2021/05/31 00:12:58;;;;;;;10.47;9.47;;;;;;;13.90;64.49;95108.38;5052006;28;20485;-69
2021/05/31 00:15:29;;;;;;;9.57;8.57;;;;;;;13.95;64.17;95098.59;5058628;28;20434;-64
2021/05/31 00:17:57;;;;;;;10.50;9.40;;;;;;;14.01;63.83;95099.34;5072001;28;20446;-66
2021/05/31 00:20:24;;;;;;;10.10;9.10;;;;;;;14.25;63.61;95103.69;5057365;28;20434;-66
2021/05/31 00:22:51;;;;;;;10.17;9.17;;;;;;;14.40;63.17;95097.56;5060883;28;20463;-65
2021/05/31 00:25:18;;;;;;;10.17;9.17;;;;;;;14.27;63.59;95106.06;5055158;28;20441;-65
2021/05/31 00:27:45;;;;;;;10.37;8.90;;;;;;;14.29;63.12;95098.69;5062424;28;20449;-65
2021/05/31 00:30:13;;;;;;;10.03;9.07;;;;;;;14.27;63.48;95106.06;5063530;28;20932;-65
2021/05/31 00:32:41;;;;;;;10.17;9.13;;;;;;;13.88;63.98;95099.94;5060422;28;20434;-65
2021/05/31 00:35:09;;;;;;;10.43;9.40;;;;;;;14.01;63.87;95092.22;5070889;28;20449;-65
2021/05/31 00:37:37;;;;;;;9.47;8.47;;;;;;;13.83;64.57;95097.34;5061720;28;20536;-66
2021/05/31 00:40:05;;;;;;;10.10;8.93;;;;;;;13.97;64.82;95091.22;5070881;28;20438;-66
2021/05/31 00:42:33;;;;;;;11.07;9.50;;;;;;;13.75;65.19;95087.34;5070472;28;20458;-65
2021/05/31 00:44:59;;;;;;;10.63;9.10;;;;;;;13.83;65.03;95089.44;5057088;28;20524;-66
2021/05/31 00:47:27;;;;;;;10.67;9.30;;;;;;;14.04;64.30;95086.44;5071861;28;20438;-65
2021/05/31 00:49:54;;;;;;;9.47;8.53;;;;;;;14.03;63.76;95084.84;5071257;28;20521;-65
2021/05/31 00:52:22;;;;;;;9.60;8.63;;;;;;;13.77;65.03;95090.50;5071633;28;20861;-65
2021/05/31 00:54:49;;;;;;;10.40;9.40;;;;;;;13.94;65.16;95080.44;5071291;28;20438;-65
2021/05/31 00:57:17;;;;;;;10.23;8.93;;;;;;;13.86;64.88;95078.34;5070935;28;20448;-65
2021/05/31 00:59:44;;;;;;;10.10;9.10;;;;;;;13.74;65.03;95080.53;5070892;28;20434;-66
2021/05/31 01:02:12;;;;;;;9.63;8.73;;;;;;;13.65;65.50;95066.34;5071000;28;20951;-65
2021/05/31 01:04:39;;;;;;;9.93;9.00;;;;;;;13.82;64.99;95082.56;5069364;28;20434;-65
2021/05/31 01:07:26;;;;;;;11.53;9.60;;;;;;;13.46;66.11;95075.88;5059026;28;20449;-66
2021/05/31 01:10:13;;;;;;;10.00;9.00;;;;;;;13.77;65.77;95074.69;5070987;28;20484;-65
2021/05/31 01:13:00;;;;;;;10.27;8.57;;;;;;;13.63;65.38;95073.72;5072036;28;20549;-68
2021/05/31 01:15:39;;;;;;;9.50;8.60;;;;;;;14.03;64.31;95057.72;5064791;28;20534;-66
2021/05/31 01:18:31;;;;;;;10.83;8.83;;;;;;;13.71;64.73;95075.78;5064685;28;20759;-68
2021/05/31 01:20:58;;;;;;;10.27;8.80;;;;;;;13.58;65.30;95065.81;5070465;28;20989;-68
2021/05/31 01:23:30;;;;;;;9.50;8.50;;;;;;;13.40;65.64;95053.25;5068559;28;20990;-66
2021/05/31 01:26:08;;;;;;;10.20;9.23;;;;;;;13.64;65.52;95060.28;5059868;28;20446;-66
2021/05/31 01:28:55;;;;;;;10.17;9.03;;;;;;;13.39;65.33;95063.00;5070159;28;20460;-67
2021/05/31 01:31:33;;;;;;;11.17;9.90;;;;;;;13.41;65.64;95039.81;5059108;28;20537;-66
2021/05/31 01:34:03;;;;;;;10.13;8.70;;;;;;;13.70;65.11;95061.84;5069423;28;20963;-67
2021/05/31 01:36:34;;;;;;;10.47;9.37;;;;;;;13.43;66.10;95065.88;5069379;28;20442;-69
2021/05/31 01:39:02;;;;;;;10.97;9.10;;;;;;;13.49;65.57;95067.44;5050109;28;20451;-67
2021/05/31 01:41:30;;;;;;;10.37;9.23;;;;;;;13.90;64.62;95063.59;5064211;28;20426;-67
2021/05/31 01:43:58;;;;;;;9.67;8.43;;;;;;;13.72;64.85;95056.31;5070265;28;20591;-67
2021/05/31 01:46:25;;;;;;;10.80;9.47;;;;;;;14.02;64.21;95061.41;5070463;28;20458;-66
2021/05/31 01:48:55;;;;;;;9.97;8.97;;;;;;;13.80;64.48;95053.09;5068117;28;20886;-66
2021/05/31 01:51:23;;;;;;;9.60;8.60;;;;;;;13.97;64.26;95058.81;5070464;28;20443;-67
2021/05/31 01:53:51;;;;;;;12.13;9.20;;;;;;;13.91;64.40;95050.13;5069502;28;20532;-67
2021/05/31 01:56:19;;;;;;;10.10;9.17;;;;;;;13.88;64.08;95050.69;5070316;28;20432;-66
2021/05/31 01:58:47;;;;;;;11.10;9.30;;;;;;;14.05;64.12;95040.56;5069355;28;20482;-67
2021/05/31 02:01:14;;;;;;;9.67;8.77;;;;;;;13.58;64.93;95037.66;5069937;28;20811;-66
2021/05/31 02:03:42;;;;;;;9.87;8.87;;;;;;;13.58;64.98;95034.22;5069418;28;20485;-66
2021/05/31 02:06:10;;;;;;;11.40;8.97;;;;;;;13.72;64.96;95035.22;5056144;28;20825;-66
2021/05/31 02:08:37;;;;;;;9.43;8.27;;;;;;;13.60;64.94;95032.09;5049227;28;20439;-66
2021/05/31 02:11:29;;;;;;;11.33;9.30;;;;;;;13.92;64.06;95024.59;5049575;28;20461;-66
2021/05/31 02:14:02;;;;;;;11.47;8.70;;;;;;;14.03;63.82;95020.84;5048955;28;20992;-66
2021/05/31 02:16:36;;;;;;;10.37;9.27;;;;;;;14.01;63.39;95022.94;5063746;28;20520;-66
2021/05/31 02:19:04;;;;;;;10.87;9.77;;;;;;;14.27;63.16;95027.00;5049747;28;20847;-66
2021/05/31 02:21:34;;;;;;;10.43;9.43;;;;;;;14.34;62.61;95027.50;5049612;28;20445;-67
2021/05/31 02:24:02;;;;;;;9.67;8.50;;;;;;;14.16;63.22;95014.94;5049889;28;20961;-67
2021/05/31 02:26:30;;;;;;;10.03;9.00;;;;;;;13.89;64.36;95019.84;5050042;28;20443;-66
2021/05/31 02:28:57;;;;;;;10.73;8.43;;;;;;;13.41;65.01;95018.00;5068520;28;20854;-67
2021/05/31 02:31:24;;;;;;;9.60;8.63;;;;;;;13.35;65.64;95013.78;5058328;28;20816;-65
2021/05/31 02:33:51;;;;;;;10.80;9.07;;;;;;;13.26;65.47;95015.41;5063426;28;20586;-67
2021/05/31 02:36:18;;;;;;;9.70;8.70;;;;;;;13.30;65.81;95021.72;5059956;28;20441;-67
2021/05/31 02:38:45;;;;;;;10.07;9.07;;;;;;;13.46;65.66;95025.88;5069251;28;20434;-66
2021/05/31 02:43:58;;;;;;;10.43;8.77;;;;;;;13.58;65.44;95013.16;5054842;28;20500;-66
2021/05/31 02:46:24;;;;;;;9.37;8.47;;;;;;;13.57;64.80;95025.56;5069928;28;20810;-66
2021/05/31 02:48:51;;;;;;;9.43;8.63;;;;;;;13.52;64.94;95022.16;5068901;28;20446;-65
2021/05/31 02:51:18;;;;;;;9.80;8.80;;;;;;;13.50;64.73;95021.63;5070022;28;20438;-66
2021/05/31 02:53:45;;;;;;;10.30;8.57;;;;;;;13.50;64.48;95016.38;5068820;28;20442;-66
2021/05/31 02:56:12;;;;;;;9.03;8.13;;;;;;;13.73;63.84;95021.00;5069522;28;20457;-66
2021/05/31 02:58:40;;;;;;;8.77;7.97;;;;;;;13.61;64.32;95023.16;5054978;28;20443;-67
2021/05/31 03:01:07;;;;;;;9.03;8.23;;;;;;;13.66;64.09;95012.59;5069594;28;20544;-67
2021/05/31 03:03:34;;;;;;;9.33;8.43;;;;;;;13.64;64.17;95022.63;5069011;28;20474;-66
2021/05/31 03:06:01;;;;;;;9.83;8.60;;;;;;;13.43;64.81;95021.16;5057691;28;20453;-66
2021/05/31 03:08:27;;;;;;;12.60;9.10;;;;;;;13.73;64.02;95021.78;5066221;28;20441;-67
2021/05/31 03:10:54;;;;;;;10.10;8.77;;;;;;;13.73;63.93;95024.41;5053392;28;20439;-67
2021/05/31 03:13:22;;;;;;;10.40;9.30;;;;;;;13.80;63.46;95016.22;5069637;28;20552;-67
2021/05/31 03:15:49;;;;;;;11.13;8.80;;;;;;;13.79;63.76;95015.44;5064081;28;20960;-67
2021/05/31 03:18:17;;;;;;;12.27;9.10;;;;;;;13.69;64.10;95019.97;5066593;28;20454;-67
2021/05/31 03:20:44;;;;;;;9.97;9.07;;;;;;;13.72;64.09;95019.44;5060994;28;20442;-67
2021/05/31 03:23:10;;;;;;;10.10;9.10;;;;;;;13.56;64.48;95017.91;5072521;28;20474;-68
2021/05/31 03:25:38;;;;;;;10.53;8.83;;;;;;;13.36;64.83;95015.38;5053121;28;20443;-67
2021/05/31 03:28:05;;;;;;;10.07;9.03;;;;;;;13.47;65.00;95016.91;5052150;28;20878;-66
2021/05/31 03:30:32;;;;;;;9.70;8.57;;;;;;;13.49;64.97;95015.56;5057118;28;20474;-66
2021/05/31 03:32:59;;;;;;;9.97;8.97;;;;;;;13.21;65.49;95013.56;5061239;28;20503;-68
2021/05/31 03:35:26;;;;;;;9.90;8.87;;;;;;;13.49;65.01;95012.16;5069855;28;20947;-67
2021/05/31 03:37:53;;;;;;;9.63;8.63;;;;;;;13.23;65.89;95005.44;5072996;28;20442;-68
2021/05/31 03:40:22;;;;;;;11.60;9.27;;;;;;;13.53;64.91;95005.28;5058003;28;20442;-68
2021/05/31 03:42:51;;;;;;;13.33;9.67;;;;;;;13.27;65.40;95011.72;5072022;28;20445;-67
2021/05/31 03:45:19;;;;;;;10.60;9.60;;;;;;;13.06;66.07;95019.66;5057702;28;20442;-69
2021/05/31 03:47:47;;;;;;;10.27;9.20;;;;;;;13.02;66.22;95021.28;5069081;28;20442;-66
2021/05/31 03:50:15;;;;;;;10.53;9.53;;;;;;;13.00;66.83;95015.47;5058129;28;20512;-65
2021/05/31 03:52:44;;;;;;;9.70;8.80;;;;;;;13.32;65.60;95024.88;5071800;28;20452;-65
2021/05/31 03:55:11;;;;;;;11.20;10.10;;;;;;;13.38;65.46;95014.03;5067463;28;20445;-66
2021/05/31 03:57:39;;;;;;;10.53;9.53;;;;;;;13.40;65.24;95022.47;5072219;28;20498;-67
2021/05/31 04:00:08;;;;;;;11.07;9.97;;;;;;;13.38;65.29;95013.25;5070908;28;20495;-67
2021/05/31 04:02:42;;;;;;;10.97;9.87;;;;;;;13.77;63.75;95017.56;5069144;28;20452;-67
2021/05/31 04:05:12;;;;;;;10.40;9.27;;;;;;;13.80;63.86;95017.00;5066858;28;20573;-65
2021/05/31 04:13:10;;;;;;;11.40;10.03;;;;;;;13.74;63.40;95020.72;5051869;28;20956;-65
2021/05/31 04:15:37;;;;;;;12.27;10.97;;;;;;;13.66;63.32;95015.25;5052198;28;20446;-64
2021/05/31 04:18:05;;;;;;;12.40;10.67;;;;;;;13.40;64.04;95026.94;5051541;28;20443;-68
2021/05/31 04:20:32;;;;;;;13.10;10.10;;;;;;;13.47;64.35;95027.41;5059919;28;20456;-67
2021/05/31 04:22:59;;;;;;;12.50;10.27;;;;;;;13.85;63.32;95024.09;5071606;28;20533;-68
2021/05/31 04:25:26;;;;;;;12.50;10.47;;;;;;;13.50;63.81;95017.16;5070098;28;20435;-68
2021/05/31 04:27:52;;;;;;;13.00;10.97;;;;;;;13.60;63.93;95022.38;5059978;28;20457;-67
2021/05/31 04:30:20;;;;;;;12.40;10.67;;;;;;;13.54;64.39;95022.69;5053143;28;20532;-67
2021/05/31 04:32:47;;;;;;;11.83;10.50;;;;;;;13.46;64.38;95017.97;5052829;28;20443;-67
2021/05/31 04:35:14;;;;;;;12.30;10.47;;;;;;;13.33;64.90;95019.34;5065504;28;20822;-67
2021/05/31 04:37:41;;;;;;;15.23;11.47;;;;;;;13.28;64.73;95002.78;5062302;28;20442;-66
2021/05/31 04:40:11;;;;;;;13.40;11.40;;;;;;;13.38;64.87;95016.66;5071073;28;20986;-66
2021/05/31 04:42:38;;;;;;;13.83;11.37;;;;;;;13.80;63.82;95021.47;5071381;28;20448;-67
2021/05/31 04:45:06;;;;;;;12.47;11.17;;;;;;;13.67;64.19;95019.44;5055609;28;20483;-68
2021/05/31 04:47:32;;;;;;;11.57;10.37;;;;;;;13.31;64.71;95018.00;5058792;28;20438;-69
2021/05/31 04:49:59;;;;;;;12.77;11.10;;;;;;;13.16;64.51;95017.03;5057428;28;20439;-69
2021/05/31 04:52:26;;;;;;;22.17;19.83;;;;;;;13.60;64.36;95017.09;5050592;28;20446;-68
2021/05/31 04:54:53;;;;;;;26.03;21.50;;;;;;;13.66;64.02;95017.88;5062361;28;20437;-67
2021/05/31 04:57:21;;;;;;;72.87;64.43;;;;;;;13.97;62.82;95012.19;5066880;28;20435;-68
2021/05/31 04:59:48;;;;;;;12.97;11.30;;;;;;;13.81;63.53;95008.03;5060431;28;20443;-69
2021/05/31 05:02:15;;;;;;;13.83;10.63;;;;;;;14.11;63.75;95007.06;5057177;28;20434;-71
2021/05/31 05:04:42;;;;;;;12.77;10.73;;;;;;;14.37;63.32;95008.50;5069125;28;20477;-70
2021/05/31 05:07:12;;;;;;;11.07;9.80;;;;;;;14.02;62.46;95013.97;5051963;28;20443;-69
2021/05/31 05:09:39;;;;;;;11.27;9.20;;;;;;;14.06;62.12;95012.38;5050314;28;20794;-70
2021/05/31 05:12:07;;;;;;;13.13;10.77;;;;;;;14.12;61.26;95019.19;5051603;28;20443;-68
2021/05/31 05:14:34;;;;;;;11.17;9.70;;;;;;;14.18;60.92;95013.59;5052879;28;20479;-65
2021/05/31 05:17:03;;;;;;;13.67;10.00;;;;;;;14.16;61.14;95010.44;5065981;28;20509;-69
2021/05/31 05:19:30;;;;;;;10.30;9.13;;;;;;;13.86;61.32;94999.31;5050877;28;20443;-67
2021/05/31 05:21:57;;;;;;;20.80;18.57;;;;;;;14.22;60.95;95019.09;5055067;28;20427;-67
2021/05/31 05:24:24;;;;;;;48.30;41.43;;;;;;;14.50;60.13;95021.03;5053633;28;20553;-66
2021/05/31 05:26:51;;;;;;;11.73;9.83;;;;;;;13.91;60.64;95017.72;5055725;28;20835;-70
2021/05/31 05:29:19;;;;;;;13.40;10.27;;;;;;;14.22;60.34;95013.84;5061259;28;20486;-70
2021/05/31 05:31:47;;;;;;;12.23;9.67;;;;;;;13.96;61.22;95028.22;5054744;28;20446;-67
2021/05/31 05:34:14;;;;;;;11.83;10.00;;;;;;;14.31;60.07;95025.41;5053444;28;20439;-70
2021/05/31 05:36:53;;;;;;;11.33;9.90;;;;;;;13.89;61.87;95017.22;5055463;28;20945;-68
2021/05/31 05:42:25;;;;;;;12.40;10.20;;;;;;;14.11;60.38;95021.03;5067794;28;20448;-73
2021/05/31 05:47:42;;;;;;;13.93;10.27;;;;;;;14.23;59.96;95023.34;5070568;28;20438;-69
2021/05/31 05:50:15;;;;;;;10.70;9.60;;;;;;;14.61;60.35;95019.09;5056549;28;20500;-70
2021/05/31 05:52:44;;;;;;;12.37;9.40;;;;;;;14.61;60.28;95000.66;5070158;28;20442;-74
2021/05/31 05:55:16;;;;;;;10.93;9.50;;;;;;;14.67;59.08;95016.13;5068376;28;20979;-72
2021/05/31 05:57:43;;;;;;;12.67;9.43;;;;;;;14.59;58.31;95024.66;5070047;28;20449;-73
2021/05/31 06:00:16;;;;;;;11.33;9.30;;;;;;;14.93;57.78;95014.84;5069919;28;20470;-69
2021/05/31 06:02:43;;;;;;;11.53;9.63;;;;;;;14.76;57.91;95019.75;5057018;28;20456;-67
2021/05/31 06:05:11;;;;;;;11.47;8.83;;;;;;;14.46;58.26;95014.75;5064367;28;20478;-69
2021/05/31 06:07:38;;;;;;;10.97;9.23;;;;;;;14.82;57.88;95026.56;5061876;28;20445;-71
2021/05/31 06:10:07;;;;;;;12.27;9.47;;;;;;;14.72;58.96;95018.75;5055375;28;20426;-72
2021/05/31 06:12:34;;;;;;;10.23;8.83;;;;;;;14.80;57.27;95015.50;5069993;28;20446;-67
2021/05/31 06:15:02;;;;;;;8.70;7.90;;;;;;;14.93;57.41;95017.47;5055953;28;20468;-70
2021/05/31 06:17:29;;;;;;;13.93;9.00;;;;;;;15.15;56.98;95015.16;5070391;28;20453;-73
2021/05/31 06:20:05;;;;;;;10.23;8.70;;;;;;;15.25;57.92;95012.38;5055261;28;20435;-73
2021/05/31 06:22:35;;;;;;;11.50;8.77;;;;;;;15.07;57.14;95014.97;5061245;28;20453;-69
2021/05/31 06:25:02;;;;;;;9.50;7.97;;;;;;;15.19;56.78;95005.59;5049559;28;20525;-68
2021/05/31 06:27:29;;;;;;;8.57;7.67;;;;;;;15.52;56.32;94990.72;5050028;28;20445;-67
2021/05/31 06:29:56;;;;;;;12.73;8.00;;;;;;;15.66;54.65;94994.22;5062758;28;21001;-67
2021/05/31 06:32:23;;;;;;;10.37;8.63;;;;;;;15.33;56.29;94997.00;5050644;28;20443;-66
2021/05/31 06:34:50;;;;;;;10.53;7.67;;;;;;;15.40;56.26;95002.72;5052837;28;20441;-66
2021/05/31 06:37:17;;;;;;;9.27;7.80;;;;;;;15.64;54.95;95009.56;5067709;28;21036;-68
2021/05/31 06:39:43;;;;;;;9.53;8.63;;;;;;;15.04;56.23;95005.75;5069638;28;20450;-70
2021/05/31 06:42:11;;;;;;;8.50;7.67;;;;;;;15.65;56.34;94999.81;5072437;28;21021;-66
2021/05/31 06:44:39;;;;;;;9.47;7.80;;;;;;;15.49;54.85;94998.44;5075737;28;20477;-70
2021/05/31 06:47:08;;;;;;;8.50;6.93;;;;;;;15.95;53.96;94997.53;5063256;28;20974;-68
2021/05/31 06:49:38;;;;;;;10.93;7.37;;;;;;;15.97;53.41;94987.47;5074354;28;20532;-72
2021/05/31 06:52:05;;;;;;;10.23;6.43;;;;;;;15.87;53.40;94981.53;5059931;28;20534;-73
2021/05/31 06:54:33;;;;;;;9.53;6.77;;;;;;;16.06;53.19;94996.31;5073887;28;20438;-68
2021/05/31 06:57:00;;;;;;;9.63;6.77;;;;;;;15.89;52.26;94997.91;5074162;28;20503;-68
2021/05/31 06:59:27;;;;;;;15.27;7.67;;;;;;;15.19;53.14;94996.91;5074220;28;20557;-72
2021/05/31 07:01:55;;;;;;;8.53;7.50;;;;;;;15.65;53.20;94992.69;5061159;28;21273;-69
2021/05/31 07:04:22;;;;;;;8.10;7.07;;;;;;;15.50;54.27;94992.06;5060593;28;20465;-71
2021/05/31 07:06:49;;;;;;;11.43;7.80;;;;;;;15.79;54.14;94990.09;5064166;28;20446;-67
2021/05/31 07:09:16;;;;;;;11.00;7.23;;;;;;;15.72;53.61;94993.09;5062382;28;20446;-76
2021/05/31 07:11:46;;;;;;;6.73;5.70;;;;;;;15.74;50.56;94987.53;5067285;28;20465;-67
2021/05/31 07:14:18;;;;;;;6.50;5.60;;;;;;;16.02;51.59;94989.25;5053590;28;20463;-71
2021/05/31 07:16:46;;;;;;;8.97;6.23;;;;;;;16.02;51.06;94984.75;5070745;28;20442;-68
2021/05/31 07:19:13;;;;;;;9.87;6.13;;;;;;;16.15;50.80;94988.50;5063325;28;20447;-71
2021/05/31 07:21:41;;;;;;;6.70;5.93;;;;;;;15.93;51.68;94990.97;5052911;28;20453;-70
2021/05/31 07:24:10;;;;;;;7.37;6.37;;;;;;;15.96;51.66;94985.13;5060605;28;21002;-67
2021/05/31 07:26:38;;;;;;;6.43;5.83;;;;;;;15.92;52.13;94986.75;5058819;28;20474;-70
2021/05/31 07:29:05;;;;;;;11.17;6.60;;;;;;;15.99;51.86;94985.31;5059158;28;20492;-76
2021/05/31 07:31:33;;;;;;;9.37;6.43;;;;;;;16.10;51.17;94975.38;5060628;28;20439;-72
2021/05/31 07:34:00;;;;;;;6.60;5.87;;;;;;;15.98;50.33;94985.63;5057917;28;20454;-71
2021/05/31 07:36:27;;;;;;;8.30;6.10;;;;;;;16.37;52.08;94985.31;5063093;28;20450;-71
2021/05/31 07:38:54;;;;;;;6.77;5.70;;;;;;;16.48;50.75;94976.91;5073075;28;20440;-72
2021/05/31 07:41:21;;;;;;;5.77;5.17;;;;;;;16.63;49.92;94979.31;5072593;28;21026;-68
2021/05/31 07:43:48;;;;;;;6.90;5.57;;;;;;;16.67;48.34;94979.53;5067635;28;20465;-71
2021/05/31 07:46:15;;;;;;;6.00;5.20;;;;;;;17.12;48.63;94982.13;5063643;28;20486;-74
2021/05/31 07:48:43;;;;;;;5.63;5.03;;;;;;;16.88;47.82;94973.56;5069454;28;20443;-72
2021/05/31 07:51:20;;;;;;;7.70;5.00;;;;;;;16.94;46.48;94969.78;5062003;28;20526;-71
2021/05/31 07:53:51;;;;;;;5.47;4.90;;;;;;;16.84;46.93;94972.59;5071599;28;20442;-68
2021/05/31 07:56:19;;;;;;;6.13;4.60;;;;;;;17.34;47.25;94964.75;5062807;28;20454;-70
2021/05/31 07:58:46;;;;;;;8.20;5.17;;;;;;;17.65;46.94;94952.50;5053777;28;21027;-72
2021/05/31 08:01:13;;;;;;;7.77;6.23;;;;;;;17.65;46.70;94957.78;5072206;28;20434;-69
2021/05/31 08:03:43;;;;;;;9.93;5.63;;;;;;;16.99;46.69;94955.66;5071476;28;20453;-66
2021/05/31 08:06:10;;;;;;;5.33;4.83;;;;;;;16.18;48.67;94961.53;5058512;28;20582;-67
2021/05/31 08:08:37;;;;;;;6.67;5.10;;;;;;;16.77;47.32;94964.25;5051754;28;20435;-69
2021/05/31 08:11:06;;;;;;;5.33;4.83;;;;;;;16.55;47.69;94956.16;5052054;28;20534;-73
2021/05/31 08:13:33;;;;;;;5.63;4.53;;;;;;;17.12;46.34;94958.31;5070169;28;20514;-67
2021/05/31 08:16:00;;;;;;;8.17;4.43;;;;;;;17.24;46.50;94955.94;5061092;28;20501;-66
2021/05/31 08:18:29;;;;;;;5.37;4.33;;;;;;;16.93;46.40;94956.84;5051341;28;20443;-69
2021/05/31 08:20:56;;;;;;;6.17;4.33;;;;;;;17.31;46.33;94954.78;5051804;28;20983;-68
2021/05/31 08:23:23;;;;;;;6.33;4.67;;;;;;;17.26;45.82;94954.88;5051450;28;20435;-70
2021/05/31 08:25:49;;;;;;;7.97;4.57;;;;;;;16.71;45.41;94952.22;5052082;28;20471;-67
2021/05/31 08:28:16;;;;;;;8.03;4.00;;;;;;;16.91;45.46;94954.50;5066216;28;20568;-66
2021/05/31 08:30:44;;;;;;;8.87;4.70;;;;;;;17.63;47.17;94952.00;5066023;28;20482;-65
2021/05/31 08:33:11;;;;;;;4.73;4.27;;;;;;;18.00;45.36;94954.38;5051372;28;20979;-65
2021/05/31 08:35:43;;;;;;;7.43;4.60;;;;;;;18.23;43.90;94948.00;5065829;28;20492;-65
2021/05/31 08:38:10;;;;;;;8.63;4.03;;;;;;;18.63;44.63;94951.56;5065257;28;20457;-72
2021/05/31 08:40:38;;;;;;;4.97;4.47;;;;;;;18.31;43.83;94944.63;5051829;28;20438;-68
2021/05/31 08:43:06;;;;;;;4.60;4.10;;;;;;;17.94;44.25;94939.66;5051143;28;20526;-68
2021/05/31 08:45:36;;;;;;;5.00;4.50;;;;;;;17.91;45.09;94945.56;5070615;28;20473;-70
2021/05/31 08:48:07;;;;;;;5.53;4.67;;;;;;;18.46;44.28;94931.03;5070904;28;20529;-71
2021/05/31 08:50:36;;;;;;;6.10;4.60;;;;;;;18.29;43.26;94930.88;5071496;28;20530;-72
2021/05/31 08:53:04;;;;;;;6.93;5.03;;;;;;;17.82;44.86;94936.75;5071190;28;20465;-68
2021/05/31 08:55:32;;;;;;;7.00;5.00;;;;;;;18.13;44.41;94942.94;5070826;28;20561;-69
2021/05/31 08:58:00;;;;;;;8.80;4.80;;;;;;;17.92;44.62;94931.22;5061910;28;20454;-66
2021/05/31 09:00:30;;;;;;;5.97;4.60;;;;;;;18.42;46.16;94932.72;5067037;28;20450;-66
2021/05/31 09:02:59;;;;;;;7.10;4.67;;;;;;;18.59;44.67;94930.19;5070834;28;20982;-68
2021/05/31 09:05:38;;;;;;;6.73;4.60;;;;;;;17.93;44.36;94911.59;5062607;28;20487;-69
2021/05/31 09:08:08;;;;;;;5.27;4.47;;;;;;;17.54;46.25;94929.94;5064387;28;20446;-66
2021/05/31 09:10:53;;;;;;;7.83;4.83;;;;;;;17.36;45.48;94922.88;5059375;28;20441;-71
2021/05/31 09:13:34;;;;;;;7.60;5.40;;;;;;;16.87;47.61;94942.13;5053471;28;20485;-64
2021/05/31 09:16:17;;;;;;;6.13;5.10;;;;;;;17.08;47.51;94933.50;5061774;28;20532;-69
2021/05/31 09:18:51;;;;;;;7.73;4.27;;;;;;;16.81;47.58;94936.13;5064805;28;20444;-71
2021/05/31 09:21:22;;;;;;;9.63;4.67;;;;;;;17.16;47.76;94930.16;5050640;28;20982;-68
2021/05/31 09:24:10;;;;;;;7.17;4.23;;;;;;;17.20;45.89;94928.50;5050170;28;20555;-73
2021/05/31 09:26:59;;;;;;;7.93;5.00;;;;;;;17.30;47.17;94939.97;5050409;28;20577;-66
2021/05/31 09:29:28;;;;;;;4.77;4.37;;;;;;;17.65;45.72;94926.00;5059730;28;20485;-68
2021/05/31 09:32:06;;;;;;;7.60;4.80;;;;;;;17.94;44.71;94926.41;5068285;28;20541;-67
2021/05/31 09:34:34;;;;;;;5.33;4.50;;;;;;;18.23;44.16;94924.13;5050588;28;20439;-68
2021/05/31 09:37:04;;;;;;;6.70;4.30;;;;;;;17.76;45.76;94922.03;5055960;28;20444;-66
2021/05/31 09:39:40;;;;;;;4.20;3.80;;;;;;;17.43;45.67;94918.75;5057085;28;20443;-70
2021/05/31 09:42:12;;;;;;;4.77;4.30;;;;;;;17.84;44.83;94913.38;5069029;28;20986;-68
2021/05/31 09:44:57;;;;;;;5.77;4.03;;;;;;;17.65;44.37;94915.41;5070406;28;20556;-64
2021/05/31 09:47:29;;;;;;;6.33;4.17;;;;;;;17.69;45.73;94916.38;5050235;28;20966;-69
2021/05/31 09:49:58;;;;;;;4.57;3.93;;;;;;;18.49;43.98;94909.19;5063426;28;20442;-67
2021/05/31 09:52:26;;;;;;;5.43;4.50;;;;;;;18.52;43.65;94903.25;5070616;28;20438;-68
2021/05/31 09:54:54;;;;;;;6.50;4.23;;;;;;;18.45;43.07;94897.59;5070673;28;20446;-72
2021/05/31 09:57:29;;;;;;;5.43;4.17;;;;;;;18.77;42.86;94907.94;5065148;28;20789;-70
2021/05/31 10:00:08;;;;;;;5.60;3.70;;;;;;;18.32;43.38;94906.38;5061675;28;20822;-66
2021/05/31 10:08:00;;;;;;;5.20;4.00;;;;;;;18.48;42.36;94897.03;5049901;28;20481;-68
2021/05/31 10:10:28;;;;;;;5.43;3.60;;;;;;;18.10;43.06;94890.50;5050114;28;20501;-69
2021/05/31 10:12:55;;;;;;;4.00;3.60;;;;;;;18.41;42.65;94891.34;5049963;28;20521;-67
2021/05/31 10:15:27;;;;;;;4.30;3.90;;;;;;;19.03;42.12;94884.13;5049493;28;20477;-70
2021/05/31 10:17:59;;;;;;;4.40;3.90;;;;;;;18.75;41.43;94880.91;5049902;28;20976;-72
2021/05/31 10:20:28;;;;;;;3.87;3.47;;;;;;;18.13;41.85;94884.59;5064162;28;20446;-65
2021/05/31 10:22:56;;;;;;;5.37;3.33;;;;;;;18.50;41.56;94884.22;5050062;28;20443;-64
2021/05/31 10:25:25;;;;;;;7.57;3.80;;;;;;;19.00;40.87;94877.56;5049816;28;20481;-73
2021/05/31 10:27:55;;;;;;;4.20;3.20;;;;;;;18.62;40.58;94881.78;5049390;28;20808;-68
2021/05/31 10:30:22;;;;;;;4.40;3.33;;;;;;;18.96;40.17;94873.16;5063510;28;20474;-70
2021/05/31 10:32:51;;;;;;;3.70;2.90;;;;;;;18.61;40.81;94871.47;5049853;28;20443;-71
2021/05/31 10:35:22;;;;;;;5.63;3.20;;;;;;;19.07;40.39;94859.28;5079251;28;20456;-74
2021/05/31 10:37:53;;;;;;;6.53;3.53;;;;;;;19.01;40.20;94871.16;5061318;28;20880;-65
2021/05/31 10:40:22;;;;;;;5.30;3.30;;;;;;;19.01;41.07;94857.88;5059819;28;20537;-66
2021/05/31 10:42:51;;;;;;;6.20;3.17;;;;;;;19.14;40.50;94862.28;5054371;28;20450;-73
2021/05/31 10:45:26;;;;;;;6.60;3.10;;;;;;;19.75;40.64;94861.28;5067057;28;20474;-71
2021/05/31 10:48:08;;;;;;;7.37;3.40;;;;;;;19.96;40.36;94850.81;5070079;28;20510;-69
2021/05/31 10:50:39;;;;;;;3.30;3.00;;;;;;;19.79;38.13;94845.50;5070601;28;20439;-72
2021/05/31 10:53:31;;;;;;;4.23;3.30;;;;;;;20.27;39.12;94851.41;5057530;28;20503;-69
2021/05/31 10:56:01;;;;;;;5.73;3.13;;;;;;;20.14;38.96;94837.16;5061820;28;20485;-72
2021/05/31 10:58:35;;;;;;;3.53;2.97;;;;;;;20.41;39.16;94829.91;5060766;28;20979;-68
2021/05/31 11:01:07;;;;;;;3.17;2.60;;;;;;;20.41;37.75;94843.22;5067393;28;20434;-71
2021/05/31 11:04:00;;;;;;;4.20;2.80;;;;;;;20.74;37.97;94839.66;5057993;28;20533;-68
2021/05/31 11:06:35;;;;;;;3.80;2.90;;;;;;;19.75;38.31;94853.31;5052801;28;20488;-68
2021/05/31 11:09:16;;;;;;;4.63;2.90;;;;;;;20.63;38.99;94843.78;5049263;28;20449;-64
2021/05/31 11:11:48;;;;;;;3.10;2.63;;;;;;;19.80;38.01;94836.41;5063241;28;20446;-69
2021/05/31 11:14:28;;;;;;;3.73;3.13;;;;;;;20.91;37.01;94831.59;5059453;28;20451;-71
2021/05/31 11:16:57;;;;;;;3.80;2.33;;;;;;;20.74;37.87;94823.69;5057347;28;20440;-70
2021/05/31 11:19:41;;;;;;;4.23;2.60;;;;;;;20.93;38.02;94826.72;5069140;28;20431;-69
2021/05/31 11:22:21;;;;;;;11.50;3.40;;;;;;;21.00;38.23;94815.59;5063959;28;20526;-74
2021/05/31 11:24:52;;;;;;;3.63;2.53;;;;;;;20.71;37.77;94828.88;5062332;28;20211;-71
2021/05/31 11:27:41;;;;;;;3.50;2.80;;;;;;;20.49;38.24;94827.22;5056593;28;20452;-69
2021/05/31 11:30:11;;;;;;;5.60;2.60;;;;;;;20.46;38.81;94832.41;5058091;28;20486;-70
2021/05/31 11:32:38;;;;;;;3.00;2.57;;;;;;;20.31;39.08;94825.72;5073142;28;20438;-72
2021/05/31 11:35:08;;;;;;;6.53;3.30;;;;;;;20.39;39.76;94827.56;5073124;28;20454;-68
2021/05/31 11:37:58;;;;;;;7.13;3.80;;;;;;;20.33;39.72;94828.84;5073874;28;20433;-63
2021/05/31 11:40:30;;;;;;;4.37;3.17;;;;;;;20.07;40.29;94820.13;5056620;28;20446;-68
2021/05/31 11:43:00;;;;;;;5.90;2.70;;;;;;;19.94;40.07;94826.41;5065065;28;20464;-70
2021/05/31 11:45:33;;;;;;;6.30;3.23;;;;;;;19.94;39.41;94834.38;5068081;28;20585;-66
2021/05/31 11:48:01;;;;;;;5.20;3.07;;;;;;;19.31;40.02;94850.94;5064267;28;20481;-68
2021/05/31 11:50:30;;;;;;;4.50;4.10;;;;;;;18.98;38.87;94847.06;5070211;28;20438;-78
2021/05/31 11:52:57;;;;;;;5.17;2.37;;;;;;;18.98;38.26;94842.56;5053725;28;20512;-75
2021/05/31 11:55:26;;;;;;;5.23;2.70;;;;;;;19.09;38.45;94843.84;5054964;28;20443;-72
2021/05/31 11:57:53;;;;;;;3.10;1.90;;;;;;;18.96;37.86;94839.44;5072821;28;20507;-65
2021/05/31 12:00:24;;;;;;;3.00;2.00;;;;;;;19.12;36.95;94847.75;5071232;28;20442;-72